createdAt,value
2023-01-01T00:00:08.958Z,38.92
2023-01-01T00:02:38.307Z,40.42
2023-01-01T00:05:08.699Z,53.53
2023-01-01T00:07:36.757Z,45.17
2023-01-01T00:10:23.397Z,34.53
2023-01-01T00:12:51.381Z,29.48
2023-01-01T00:15:19.378Z,30.20
2023-01-01T00:17:47.390Z,29.35
2023-01-01T00:20:16.697Z,30.00
2023-01-01T00:22:54.562Z,29.75
2023-01-01T00:25:23.708Z,29.23
2023-01-01T00:27:51.913Z,30.77
2023-01-01T00:30:20.000Z,31.23
2023-01-01T00:32:55.407Z,24.10
2023-01-01T00:35:25.676Z,27.05
2023-01-01T00:37:54.268Z,27.17
2023-01-01T00:40:22.587Z,25.13
2023-01-01T00:42:50.984Z,25.33
2023-01-01T00:45:22.268Z,26.88
2023-01-01T00:47:51.468Z,23.83
2023-01-01T00:50:19.866Z,23.83
2023-01-01T00:52:49.993Z,20.13
2023-01-01T00:55:18.080Z,23.02
2023-01-01T00:57:46.102Z,24.33
2023-01-01T01:00:15.837Z,26.58
2023-01-01T01:02:43.885Z,21.08
2023-01-01T01:05:12.109Z,20.80
2023-01-01T01:07:40.597Z,23.65
2023-01-01T01:10:12.167Z,17.35
2023-01-01T01:12:40.408Z,21.27
2023-01-01T01:15:10.107Z,17.17
2023-01-01T01:17:38.373Z,15.82
2023-01-01T01:20:07.541Z,15.23
2023-01-01T01:22:35.840Z,17.45
2023-01-01T01:25:04.844Z,15.13
2023-01-01T01:27:34.355Z,13.85
2023-01-01T01:30:02.303Z,12.57
2023-01-01T01:32:30.234Z,16.08
2023-01-01T01:34:58.195Z,14.63
2023-01-01T01:37:26.205Z,18.58
2023-01-01T01:39:54.416Z,17.48
2023-01-01T01:42:22.918Z,14.82
2023-01-01T01:44:57.986Z,16.35
2023-01-01T01:47:30.728Z,18.48
2023-01-01T01:50:04.081Z,12.82
2023-01-01T01:52:35.557Z,10.45
2023-01-01T01:55:06.951Z,15.77
2023-01-01T01:57:35.472Z,16.15
2023-01-01T02:00:11.019Z,11.55
2023-01-01T02:02:44.650Z,12.20
2023-01-01T02:05:13.401Z,18.80
2023-01-01T02:07:41.746Z,14.88
2023-01-01T02:10:10.415Z,12.98
2023-01-01T02:12:38.378Z,11.93
2023-01-01T02:15:10.017Z,12.27
2023-01-01T02:17:45.275Z,10.77
2023-01-01T02:20:24.896Z,11.88
2023-01-01T02:23:25.135Z,10.38
2023-01-01T02:26:09.980Z,10.63
2023-01-01T02:28:51.667Z,14.02
2023-01-01T02:31:23.540Z,8.73
2023-01-01T02:33:54.523Z,8.68
2023-01-01T02:36:24.627Z,12.02
2023-01-01T02:38:55.751Z,10.63
2023-01-01T02:41:28.337Z,11.88
2023-01-01T02:46:24.734Z,14.70
2023-01-01T02:48:54.650Z,14.13
2023-01-01T02:51:30.294Z,15.52
2023-01-01T02:54:03.954Z,12.90
2023-01-01T02:56:40.023Z,8.40
2023-01-01T02:59:40.059Z,9.85
2023-01-01T03:02:18.059Z,11.38
2023-01-01T03:04:58.614Z,9.93
2023-01-01T03:07:40.983Z,17.52
2023-01-01T03:10:15.164Z,15.85
2023-01-01T03:12:48.750Z,16.60
2023-01-01T03:15:26.275Z,14.93
2023-01-01T03:18:01.214Z,12.48
2023-01-01T03:20:32.747Z,10.77
2023-01-01T03:23:04.529Z,11.80
2023-01-01T03:25:35.921Z,11.52
2023-01-01T03:28:08.544Z,12.53
2023-01-01T03:30:40.813Z,9.52
2023-01-01T03:35:48.082Z,10.23
2023-01-01T03:38:20.686Z,13.63
2023-01-01T03:40:51.836Z,8.90
2023-01-01T03:43:26.417Z,8.43
2023-01-01T03:45:57.642Z,8.80
2023-01-01T03:48:25.593Z,10.90
2023-01-01T03:51:03.010Z,6.47
2023-01-01T03:53:39.468Z,9.20
2023-01-01T03:56:15.367Z,9.68
2023-01-01T03:58:50.586Z,8.80
2023-01-01T04:01:25.342Z,10.38
2023-01-01T04:03:54.203Z,12.32
2023-01-01T04:06:22.558Z,8.55
2023-01-01T04:08:54.345Z,9.45
2023-01-01T04:11:43.605Z,9.75
2023-01-01T04:14:11.632Z,10.27
2023-01-01T04:16:41.264Z,11.00
2023-01-01T04:19:09.241Z,11.60
2023-01-01T04:21:37.149Z,9.88
2023-01-01T04:24:05.431Z,14.95
2023-01-01T04:26:33.371Z,13.45
2023-01-01T04:29:01.285Z,15.38
2023-01-01T04:31:29.155Z,13.25
2023-01-01T04:33:58.441Z,14.82
2023-01-01T04:36:26.321Z,12.82
2023-01-01T04:38:54.573Z,15.40
2023-01-01T04:41:22.523Z,15.13
2023-01-01T04:43:51.453Z,19.38
2023-01-01T04:46:21.272Z,15.85
2023-01-01T04:48:49.596Z,14.65
2023-01-01T04:51:20.793Z,16.38
2023-01-01T04:53:49.022Z,14.65
2023-01-01T04:56:21.736Z,15.43
2023-01-01T04:58:49.861Z,15.45
2023-01-01T05:01:19.997Z,13.00
2023-01-01T05:03:48.844Z,17.42
2023-01-01T05:06:18.896Z,13.00
2023-01-01T05:08:48.546Z,11.82
2023-01-01T05:11:18.290Z,21.45
2023-01-01T05:13:48.060Z,15.40
2023-01-01T05:16:18.028Z,15.90
2023-01-01T05:18:46.134Z,14.68
2023-01-01T05:21:15.852Z,15.23
2023-01-01T05:23:45.400Z,13.30
2023-01-01T05:26:15.094Z,15.23
2023-01-01T05:28:43.489Z,12.95
2023-01-01T05:31:13.835Z,17.55
2023-01-01T05:33:42.809Z,20.20
2023-01-01T05:36:15.724Z,16.38
2023-01-01T05:38:45.237Z,19.38
2023-01-01T05:41:15.351Z,17.70
2023-01-01T05:43:43.329Z,21.10
2023-01-01T05:46:13.926Z,18.95
2023-01-01T05:48:41.967Z,19.50
2023-01-01T05:51:12.055Z,19.67
2023-01-01T05:53:40.386Z,18.92
2023-01-01T05:56:10.082Z,17.88
2023-01-01T05:58:38.363Z,16.25
2023-01-01T06:01:10.827Z,14.75
2023-01-01T06:03:38.799Z,18.38
2023-01-01T06:06:08.262Z,19.75
2023-01-01T06:08:36.363Z,18.95
2023-01-01T06:11:06.439Z,19.20
2023-01-01T06:13:36.364Z,14.60
2023-01-01T06:16:05.168Z,17.42
2023-01-01T06:18:36.080Z,24.02
2023-01-01T06:21:08.311Z,16.15
2023-01-01T06:26:09.876Z,17.60
2023-01-01T06:28:39.481Z,21.73
2023-01-01T06:31:09.498Z,19.30
2023-01-01T06:33:38.013Z,17.92
2023-01-01T06:36:07.996Z,21.27
2023-01-01T06:38:37.483Z,17.88
2023-01-01T06:41:07.277Z,18.58
2023-01-01T06:43:36.828Z,21.20
2023-01-01T06:46:07.962Z,18.23
2023-01-01T06:48:37.468Z,17.75
2023-01-01T06:51:11.555Z,21.75
2023-01-01T06:53:39.683Z,15.05
2023-01-01T06:56:08.445Z,13.05
2023-01-01T06:58:37.125Z,20.55
2023-01-01T07:01:08.989Z,19.30
2023-01-01T07:03:37.646Z,19.75
2023-01-01T07:06:06.399Z,18.45
2023-01-01T07:08:34.660Z,16.92
2023-01-01T07:11:02.997Z,17.65
2023-01-01T07:13:31.642Z,16.80
2023-01-01T07:15:59.749Z,21.13
2023-01-01T07:18:29.493Z,17.10
2023-01-01T07:20:59.434Z,13.85
2023-01-01T07:23:28.909Z,15.65
2023-01-01T07:25:57.673Z,20.23
2023-01-01T07:28:26.785Z,18.30
2023-01-01T07:30:54.861Z,20.90
2023-01-01T07:33:24.535Z,21.27
2023-01-01T07:35:53.832Z,18.40
2023-01-01T07:38:21.775Z,17.25
2023-01-01T07:40:49.785Z,18.60
2023-01-01T07:43:17.700Z,12.50
2023-01-01T07:45:45.605Z,17.70
2023-01-01T07:48:16.499Z,16.13
2023-01-01T07:50:44.829Z,17.08
2023-01-01T07:53:14.146Z,19.70
2023-01-01T07:55:42.117Z,16.48
2023-01-01T07:58:10.904Z,17.05
2023-01-01T08:00:38.975Z,14.05
2023-01-01T08:03:06.968Z,22.15
2023-01-01T08:05:35.867Z,15.18
2023-01-01T08:08:03.968Z,15.98
2023-01-01T08:10:33.352Z,18.52
2023-01-01T08:13:01.738Z,17.48
2023-01-01T08:15:29.887Z,17.23
2023-01-01T08:17:58.660Z,16.20
2023-01-01T08:20:26.823Z,20.38
2023-01-01T08:22:55.020Z,17.65
2023-01-01T08:25:23.526Z,18.00
2023-01-01T08:27:52.919Z,14.95
2023-01-01T08:30:20.911Z,23.05
2023-01-01T08:32:48.883Z,16.63
2023-01-01T08:35:16.960Z,21.33
2023-01-01T08:37:44.945Z,19.73
2023-01-01T08:40:14.212Z,13.60
2023-01-01T08:42:42.171Z,13.98
2023-01-01T08:45:12.295Z,18.70
2023-01-01T08:47:40.202Z,15.15
2023-01-01T08:50:09.515Z,25.90
2023-01-01T08:52:37.504Z,17.42
2023-01-01T08:55:06.074Z,18.20
2023-01-01T08:57:34.008Z,18.52
2023-01-01T09:00:02.006Z,18.38
2023-01-01T09:02:31.390Z,19.00
2023-01-01T09:04:59.508Z,17.23
2023-01-01T09:07:27.497Z,12.70
2023-01-01T09:09:56.099Z,20.77
2023-01-01T09:12:24.092Z,14.60
2023-01-01T09:14:52.094Z,14.43
2023-01-01T09:17:20.016Z,16.38
2023-01-01T09:19:49.354Z,18.98
2023-01-01T09:22:17.290Z,13.65
2023-01-01T09:24:45.266Z,15.32
2023-01-01T09:27:13.181Z,14.88
2023-01-01T09:29:41.157Z,20.33
2023-01-01T09:32:09.086Z,15.38
2023-01-01T09:34:36.982Z,14.93
2023-01-01T09:37:06.314Z,15.85
2023-01-01T09:39:34.316Z,17.08
2023-01-01T09:42:17.932Z,12.98
2023-01-01T09:44:56.426Z,14.55
2023-01-01T09:47:29.712Z,14.65
2023-01-01T09:50:01.871Z,16.63
2023-01-01T09:52:41.547Z,17.02
2023-01-01T09:55:19.173Z,12.68
2023-01-01T09:57:47.099Z,15.90
2023-01-01T10:00:20.349Z,14.05
2023-01-01T10:03:16.474Z,14.68
2023-01-01T10:05:55.060Z,15.48
2023-01-01T10:08:35.559Z,18.50
2023-01-01T10:11:11.296Z,16.83
2023-01-01T10:13:43.118Z,15.82
2023-01-01T10:16:23.996Z,13.77
2023-01-01T10:18:55.956Z,18.33
2023-01-01T10:21:28.354Z,17.98
2023-01-01T10:26:29.895Z,14.30
2023-01-01T10:29:02.564Z,18.20
2023-01-01T10:31:34.710Z,15.73
2023-01-01T10:34:12.868Z,12.98
2023-01-01T10:36:40.886Z,24.92
2023-01-01T10:39:12.122Z,14.68
2023-01-01T10:41:40.045Z,15.07
2023-01-01T10:44:08.346Z,20.90
2023-01-01T10:46:41.138Z,13.93
2023-01-01T10:49:12.277Z,21.45
2023-01-01T10:51:45.555Z,15.52
2023-01-01T10:54:31.785Z,17.20
2023-01-01T10:57:00.101Z,15.02
2023-01-01T10:59:37.773Z,15.57
2023-01-01T11:02:21.329Z,17.58
2023-01-01T11:04:50.878Z,21.25
2023-01-01T11:07:30.102Z,17.50
2023-01-01T11:10:04.666Z,14.80
2023-01-01T11:15:36.901Z,16.45
2023-01-01T11:18:07.090Z,17.23
2023-01-01T11:20:35.721Z,15.30
2023-01-01T11:23:20.663Z,15.57
2023-01-01T11:26:01.265Z,17.92
2023-01-01T11:28:31.640Z,16.15
2023-01-01T11:31:04.367Z,16.25
2023-01-01T11:33:34.728Z,21.50
2023-01-01T11:36:03.133Z,15.93
2023-01-01T11:38:31.173Z,17.70
2023-01-01T11:41:06.252Z,18.25
2023-01-01T11:43:40.893Z,13.90
2023-01-01T11:46:11.936Z,18.25
2023-01-01T11:48:44.095Z,17.60
2023-01-01T11:51:29.375Z,17.85
2023-01-01T11:54:24.010Z,15.70
2023-01-01T11:56:55.873Z,18.88
2023-01-01T11:59:29.464Z,17.92
2023-01-01T12:02:03.154Z,17.13
2023-01-01T12:04:36.676Z,12.63
2023-01-01T12:07:08.084Z,19.75
2023-01-01T12:09:41.569Z,17.90
2023-01-01T12:12:16.727Z,14.82
2023-01-01T12:14:52.209Z,15.93
2023-01-01T12:17:24.306Z,16.10
2023-01-01T12:20:00.309Z,19.45
2023-01-01T12:22:28.664Z,19.55
2023-01-01T12:24:57.758Z,18.38
2023-01-01T12:27:39.606Z,15.98
2023-01-01T12:30:15.622Z,19.95
2023-01-01T12:33:08.507Z,19.23
2023-01-01T12:35:53.154Z,17.98
2023-01-01T12:38:38.463Z,20.20
2023-01-01T12:41:12.772Z,14.80
2023-01-01T12:43:49.925Z,17.73
2023-01-01T12:46:30.257Z,19.27
2023-01-01T12:49:09.687Z,15.15
2023-01-01T12:51:48.727Z,16.45
2023-01-01T12:55:08.512Z,16.88
2023-01-01T12:57:41.044Z,14.32
2023-01-01T13:00:16.681Z,16.02
2023-01-01T13:02:50.027Z,24.38
2023-01-01T13:05:24.301Z,19.95
2023-01-01T13:07:55.542Z,14.27
2023-01-01T13:10:27.978Z,18.40
2023-01-01T13:12:57.896Z,15.75
2023-01-01T13:15:48.588Z,14.85
2023-01-01T13:18:26.070Z,19.30
2023-01-01T13:21:06.355Z,21.73
2023-01-01T13:24:03.962Z,20.27
2023-01-01T13:26:40.215Z,16.90
2023-01-01T13:29:45.012Z,15.90
2023-01-01T13:32:15.957Z,14.85
2023-01-01T13:35:16.067Z,19.38
2023-01-01T13:37:50.409Z,17.60
2023-01-01T13:40:50.860Z,19.30
2023-01-01T13:43:33.569Z,21.08
2023-01-01T13:46:13.594Z,19.65
2023-01-01T13:49:12.993Z,15.68
2023-01-01T13:52:07.867Z,19.02
2023-01-01T13:55:09.589Z,12.00
2023-01-01T13:57:55.185Z,16.60
2023-01-01T14:00:24.818Z,16.20
2023-01-01T14:02:59.396Z,15.15
2023-01-01T14:05:32.499Z,14.10
2023-01-01T14:08:00.547Z,16.98
2023-01-01T14:10:30.344Z,16.70
2023-01-01T14:13:17.127Z,16.63
2023-01-01T14:15:54.456Z,16.73
2023-01-01T14:18:28.389Z,18.35
2023-01-01T14:20:57.693Z,17.10
2023-01-01T14:23:32.172Z,17.50
2023-01-01T14:26:01.763Z,17.88
2023-01-01T14:28:31.635Z,16.42
2023-01-01T14:31:07.108Z,18.67
2023-01-01T14:33:39.035Z,18.95
2023-01-01T14:36:18.095Z,15.13
2023-01-01T14:38:47.955Z,17.13
2023-01-01T14:41:20.015Z,19.67
2023-01-01T14:43:50.689Z,20.55
2023-01-01T14:46:21.573Z,19.58
2023-01-01T14:48:52.074Z,19.23
2023-01-01T14:51:24.520Z,18.05
2023-01-01T14:53:53.919Z,17.92
2023-01-01T14:56:27.649Z,18.55
2023-01-01T14:59:03.229Z,17.25
2023-01-01T15:01:31.575Z,15.85
2023-01-01T15:04:01.241Z,17.90
2023-01-01T15:06:30.824Z,16.73
2023-01-01T15:08:59.071Z,15.90
2023-01-01T15:11:29.272Z,18.08
2023-01-01T15:14:00.995Z,17.80
2023-01-01T15:16:34.734Z,19.13
2023-01-01T15:19:18.345Z,17.75
2023-01-01T15:21:47.719Z,17.90
2023-01-01T15:24:20.333Z,16.67
2023-01-01T15:26:52.075Z,17.45
2023-01-01T15:29:28.577Z,15.68
2023-01-01T15:31:59.814Z,16.98
2023-01-01T15:34:31.190Z,20.98
2023-01-01T15:37:10.965Z,15.85
2023-01-01T15:39:50.628Z,17.52
2023-01-01T15:42:33.858Z,16.55
2023-01-01T15:45:19.899Z,21.02
2023-01-01T15:47:48.770Z,17.55
2023-01-01T15:50:24.447Z,22.05
2023-01-01T15:52:57.035Z,19.50
2023-01-01T15:55:29.031Z,21.63
2023-01-01T15:57:57.916Z,16.70
2023-01-01T16:00:28.374Z,17.30
2023-01-01T16:02:59.932Z,23.25
2023-01-01T16:05:28.851Z,16.65
2023-01-01T16:08:03.450Z,14.85
2023-01-01T16:10:32.731Z,17.27
2023-01-01T16:13:00.687Z,18.02
2023-01-01T16:15:28.876Z,18.50
2023-01-01T16:17:56.996Z,21.33
2023-01-01T16:20:25.453Z,17.98
2023-01-01T16:22:53.531Z,17.58
2023-01-01T16:25:23.851Z,17.88
2023-01-01T16:27:51.837Z,18.85
2023-01-01T16:30:19.931Z,19.88
2023-01-01T16:32:49.056Z,22.67
2023-01-01T16:35:17.541Z,20.20
2023-01-01T16:37:45.669Z,18.13
2023-01-01T16:40:13.869Z,17.83
2023-01-01T16:42:43.264Z,21.80
2023-01-01T16:45:19.011Z,22.85
2023-01-01T16:47:47.385Z,15.20
2023-01-01T16:50:15.517Z,17.73
2023-01-01T16:52:45.213Z,19.15
2023-01-01T16:55:13.618Z,19.63
2023-01-01T16:57:44.651Z,17.13
2023-01-01T17:00:13.928Z,20.58
2023-01-01T17:02:42.528Z,23.10
2023-01-01T17:05:11.756Z,20.42
2023-01-01T17:07:41.204Z,25.13
2023-01-01T17:10:09.681Z,25.17
2023-01-01T17:12:37.813Z,28.27
2023-01-01T17:15:10.128Z,30.27
2023-01-01T17:20:06.702Z,30.38
2023-01-01T17:22:34.804Z,33.20
2023-01-01T17:25:02.878Z,40.22
2023-01-01T17:27:30.866Z,34.88
2023-01-01T17:29:58.853Z,36.15
2023-01-01T17:32:28.161Z,38.88
2023-01-01T17:34:56.087Z,47.13
2023-01-01T17:37:24.215Z,52.50
2023-01-01T17:39:52.128Z,55.20
2023-01-01T17:42:20.110Z,48.85
2023-01-01T17:44:49.090Z,53.35
2023-01-01T17:47:17.019Z,54.63
2023-01-01T17:49:46.330Z,60.28
2023-01-01T17:52:14.288Z,58.28
2023-01-01T17:54:42.251Z,57.28
2023-01-01T17:57:10.145Z,52.75
2023-01-01T17:59:38.046Z,52.08
2023-01-01T18:02:08.948Z,51.55
2023-01-01T18:04:37.457Z,59.58
2023-01-01T18:07:07.289Z,67.38
2023-01-01T18:09:38.037Z,65.20
2023-01-01T18:12:07.086Z,68.85
2023-01-01T18:14:35.027Z,64.32
2023-01-01T18:17:03.101Z,66.85
2023-01-01T18:19:32.393Z,67.75
2023-01-01T18:22:00.402Z,65.80
2023-01-01T18:24:30.533Z,73.57
2023-01-01T18:26:58.814Z,69.75
2023-01-01T18:29:26.794Z,78.35
2023-01-01T18:31:54.790Z,74.80
2023-01-01T18:34:22.814Z,75.30
2023-01-01T18:36:50.734Z,74.53
2023-01-01T18:39:23.074Z,83.75
2023-01-01T18:44:30.665Z,77.75
2023-01-01T18:49:30.804Z,74.55
2023-01-01T18:52:07.826Z,80.45
2023-01-01T18:54:36.893Z,89.72
2023-01-01T18:57:25.216Z,85.72
2023-01-01T18:59:58.902Z,85.15
2023-01-01T19:02:38.245Z,89.10
2023-01-01T19:05:24.333Z,82.75
2023-01-01T19:07:58.406Z,79.43
2023-01-01T19:10:27.537Z,84.80
2023-01-01T19:12:57.542Z,87.80
2023-01-01T19:15:25.903Z,90.28
2023-01-01T19:17:55.807Z,86.70
2023-01-01T19:20:25.345Z,86.05
2023-01-01T19:22:53.607Z,85.35
2023-01-01T19:25:36.888Z,96.20
2023-01-01T19:28:37.811Z,93.43
2023-01-01T19:31:07.613Z,95.38
2023-01-01T19:33:35.895Z,96.18
2023-01-01T19:36:04.286Z,96.53
2023-01-01T19:38:32.556Z,95.53
2023-01-01T19:41:00.777Z,95.68
2023-01-01T19:43:29.098Z,95.68
2023-01-01T19:45:58.858Z,102.35
2023-01-01T19:48:27.085Z,98.10
2023-01-01T19:50:55.356Z,102.65
2023-01-01T19:53:23.580Z,105.57
2023-01-01T19:55:51.930Z,110.18
2023-01-01T19:58:22.296Z,112.85
2023-01-01T20:00:50.983Z,114.72
2023-01-01T20:06:10.751Z,101.25
2023-01-01T20:08:39.582Z,106.93
2023-01-01T20:11:08.714Z,114.38
2023-01-01T20:13:37.307Z,104.28
2023-01-01T20:16:06.000Z,108.05
2023-01-01T20:18:36.026Z,110.90
2023-01-01T20:21:25.995Z,114.07
2023-01-01T20:23:54.870Z,117.38
2023-01-01T20:26:23.824Z,110.95
2023-01-01T20:29:09.744Z,103.95
2023-01-01T20:31:38.181Z,109.30
2023-01-01T20:34:08.069Z,106.50
2023-01-01T20:36:53.577Z,110.65
2023-01-01T20:39:22.888Z,114.60
2023-01-01T20:41:51.908Z,105.47
2023-01-01T20:44:20.112Z,109.13
2023-01-01T20:46:49.745Z,108.22
2023-01-01T20:49:20.342Z,107.50
2023-01-01T20:51:51.278Z,124.07
2023-01-01T20:54:19.524Z,108.28
2023-01-01T20:56:47.769Z,110.90
2023-01-01T20:59:36.001Z,117.95
2023-01-01T21:02:05.428Z,115.68
2023-01-01T21:04:38.993Z,121.93
2023-01-01T21:07:09.025Z,117.72
2023-01-01T21:09:37.404Z,129.10
2023-01-01T21:12:06.435Z,120.68
2023-01-01T21:14:35.191Z,121.90
2023-01-01T21:17:18.980Z,123.40
2023-01-01T21:19:48.633Z,118.85
2023-01-01T21:22:16.956Z,119.25
2023-01-01T21:24:49.710Z,107.82
2023-01-01T21:27:25.503Z,117.20
2023-01-01T21:29:57.351Z,122.72
2023-01-01T21:32:28.566Z,111.78
2023-01-01T21:34:58.179Z,122.45
2023-01-01T21:37:51.082Z,120.05
2023-01-01T21:40:51.637Z,116.68
2023-01-01T21:43:39.980Z,127.00
2023-01-01T21:46:34.514Z,127.75
2023-01-01T21:49:07.504Z,122.35
2023-01-01T21:51:41.033Z,120.50
2023-01-01T21:54:26.077Z,122.18
2023-01-01T21:56:58.365Z,118.05
2023-01-01T22:02:32.530Z,115.18
2023-01-01T22:05:02.468Z,117.15
2023-01-01T22:10:26.369Z,115.15
2023-01-01T22:12:59.692Z,120.70
2023-01-01T22:15:38.384Z,123.63
2023-01-01T22:18:27.146Z,124.07
2023-01-01T22:20:56.252Z,113.32
2023-01-01T22:23:35.366Z,121.90
2023-01-01T22:26:06.014Z,125.60
2023-01-01T22:28:42.680Z,122.00
2023-01-01T22:31:14.664Z,129.63
2023-01-01T22:33:46.100Z,121.25
2023-01-01T22:36:17.673Z,128.73
2023-01-01T22:38:47.450Z,126.78
2023-01-01T22:41:16.400Z,127.07
2023-01-01T22:43:46.582Z,131.60
2023-01-01T22:46:21.771Z,128.50
2023-01-01T22:48:57.275Z,127.75
2023-01-01T22:51:29.145Z,138.32
2023-01-01T22:53:58.728Z,130.57
2023-01-01T22:56:26.953Z,129.50
2023-01-01T22:58:57.500Z,129.73
2023-01-01T23:01:26.175Z,127.15
2023-01-01T23:03:54.712Z,137.68
2023-01-01T23:06:23.407Z,132.82
2023-01-01T23:08:53.192Z,131.45
2023-01-01T23:11:23.759Z,125.95
2023-01-01T23:14:18.425Z,130.68
2023-01-01T23:16:46.643Z,132.45
2023-01-01T23:19:15.048Z,125.60
2023-01-01T23:21:43.661Z,126.65
2023-01-01T23:24:16.143Z,121.97
2023-01-01T23:26:46.735Z,126.57
2023-01-01T23:29:15.961Z,127.18
2023-01-01T23:31:45.379Z,123.93
2023-01-01T23:34:16.690Z,112.80
2023-01-01T23:36:45.699Z,110.95
2023-01-01T23:39:13.825Z,119.63
2023-01-01T23:41:42.055Z,120.25
2023-01-01T23:44:11.875Z,116.38
2023-01-01T23:46:40.729Z,116.00
2023-01-01T23:49:09.811Z,110.05
2023-01-01T23:51:40.008Z,117.72
2023-01-01T23:54:08.545Z,108.75
2023-01-01T23:56:36.737Z,103.93
2023-01-01T23:59:04.990Z,104.25
